Time;durP1;ratioP1;P1;durP2;ratioP2;P2;SDS_P1;SDS_P2;PMS_P1;PMS_P2;Temp;Humidity;BMP_temperature;BMP_pressure;BME280_temperature;BME280_humidity;BME280_pressure;Samples;Min_cycle;Max_cycle;Signal;HPM_P1;HPM_P2
2022/12/12 00:01:29;;;;;;;10.10;6.03;;;;;;;;;;4419763;32;316327;-85
2022/12/12 00:03:55;;;;;;;8.57;6.30;;;;;;;;;;4431531;32;317599;-85
2022/12/12 00:06:23;;;;;;;11.40;7.43;;;;;;;;;;4432762;32;317125;-85
2022/12/12 00:08:51;;;;;;;10.07;6.50;;;;;;;;;;4417512;32;416024;-86
2022/12/12 00:11:18;;;;;;;9.77;5.77;;;;;;;;;;4437694;32;316099;-85
2022/12/12 00:13:45;;;;;;;15.47;9.30;;;;;;;;;;4420082;32;316329;-86
2022/12/12 00:16:13;;;;;;;11.60;6.37;;;;;;;;;;4431585;32;317380;-85
2022/12/12 00:18:41;;;;;;;10.03;6.30;;;;;;;;;;4414665;32;317591;-85
2022/12/12 00:21:13;;;;;;;14.23;7.00;;;;;;;;;;4422059;32;320199;-85
2022/12/12 00:23:40;;;;;;;16.60;10.23;;;;;;;;;;4403845;32;317947;-85
2022/12/12 00:26:16;;;;;;;17.37;10.60;;;;;;;;;;4429329;32;318371;-85
2022/12/12 00:28:44;;;;;;;22.67;12.93;;;;;;;;;;4408642;32;318610;-86
2022/12/12 00:31:12;;;;;;;16.90;10.87;;;;;;;;;;4400259;32;318421;-85
2022/12/12 00:33:39;;;;;;;17.50;12.20;;;;;;;;;;4415337;32;318595;-85
2022/12/12 00:36:09;;;;;;;17.90;10.23;;;;;;;;;;4424908;32;318514;-85
2022/12/12 00:38:37;;;;;;;15.33;10.43;;;;;;;;;;4409339;32;319195;-85
2022/12/12 00:41:06;;;;;;;16.13;10.67;;;;;;;;;;4409781;32;319023;-85
2022/12/12 00:43:33;;;;;;;15.83;9.53;;;;;;;;;;4405088;32;318195;-84
2022/12/12 00:46:01;;;;;;;19.03;10.53;;;;;;;;;;4436064;32;317601;-84
2022/12/12 00:48:28;;;;;;;17.33;9.30;;;;;;;;;;4407356;32;318536;-85
2022/12/12 00:50:56;;;;;;;14.97;10.03;;;;;;;;;;4425826;32;317294;-86
2022/12/12 00:53:24;;;;;;;16.37;9.97;;;;;;;;;;4431059;32;318528;-84
2022/12/12 00:56:00;;;;;;;15.43;9.17;;;;;;;;;;4418681;32;415846;-85
2022/12/12 00:58:27;;;;;;;15.47;9.67;;;;;;;;;;4423502;32;317451;-85
2022/12/12 01:00:54;;;;;;;17.60;11.90;;;;;;;;;;4436239;32;344609;-86
2022/12/12 01:03:22;;;;;;;19.73;13.93;;;;;;;;;;4427925;32;318289;-86
2022/12/12 01:05:51;;;;;;;25.47;16.47;;;;;;;;;;4417506;32;420674;-86
2022/12/12 01:08:18;;;;;;;28.83;18.73;;;;;;;;;;4427814;32;318398;-85
2022/12/12 01:10:47;;;;;;;26.70;18.40;;;;;;;;;;4405430;32;352543;-85
2022/12/12 01:13:13;;;;;;;22.33;17.17;;;;;;;;;;4417469;32;318429;-85
2022/12/12 01:15:40;;;;;;;24.13;17.33;;;;;;;;;;4407572;32;318509;-85
2022/12/12 01:18:07;;;;;;;23.87;16.60;;;;;;;;;;4418734;32;318488;-85
2022/12/12 01:20:34;;;;;;;24.73;16.77;;;;;;;;;;4408669;32;318917;-86
2022/12/12 01:23:01;;;;;;;30.00;19.40;;;;;;;;;;4418309;32;332491;-85
2022/12/12 01:25:28;;;;;;;27.23;19.93;;;;;;;;;;4409435;32;318913;-85
2022/12/12 01:27:57;;;;;;;27.80;19.20;;;;;;;;;;4418923;32;318580;-85
2022/12/12 01:30:23;;;;;;;25.37;19.43;;;;;;;;;;4411578;32;318388;-86
2022/12/12 01:32:51;;;;;;;29.40;19.70;;;;;;;;;;4405880;32;420843;-85
2022/12/12 01:35:18;;;;;;;30.37;21.40;;;;;;;;;;4427410;32;318346;-85
2022/12/12 01:37:45;;;;;;;29.10;20.40;;;;;;;;;;4419958;32;318655;-86
2022/12/12 01:40:17;;;;;;;37.80;22.13;;;;;;;;;;4432274;32;317133;-85
2022/12/12 01:42:44;;;;;;;31.47;21.77;;;;;;;;;;4421063;32;318703;-86
2022/12/12 01:45:43;;;;;;;32.07;22.07;;;;;;;;;;4425128;32;318482;-86
2022/12/12 01:48:11;;;;;;;37.43;23.73;;;;;;;;;;4420685;32;419426;-85
2022/12/12 01:50:40;;;;;;;39.00;23.97;;;;;;;;;;4422469;32;318045;-85
2022/12/12 01:53:09;;;;;;;29.93;21.43;;;;;;;;;;4433481;32;317256;-86
2022/12/12 01:55:36;;;;;;;35.83;22.60;;;;;;;;;;4420365;32;318621;-85
2022/12/12 01:58:04;;;;;;;38.57;23.53;;;;;;;;;;4433524;32;317054;-86
2022/12/12 02:00:32;;;;;;;32.90;20.90;;;;;;;;;;4423184;32;317181;-85
2022/12/12 02:03:00;;;;;;;36.07;22.23;;;;;;;;;;4436562;32;317335;-85
2022/12/12 02:05:36;;;;;;;28.37;20.37;;;;;;;;;;4424796;32;317186;-86
2022/12/12 02:08:05;;;;;;;33.43;19.03;;;;;;;;;;4434306;32;318512;-85
2022/12/12 02:10:32;;;;;;;36.43;20.27;;;;;;;;;;4421603;32;317210;-87
2022/12/12 02:13:02;;;;;;;36.33;20.40;;;;;;;;;;4426070;32;328165;-85
2022/12/12 02:15:36;;;;;;;37.50;19.60;;;;;;;;;;4410500;32;318589;-85
2022/12/12 02:18:07;;;;;;;31.00;18.03;;;;;;;;;;4419990;32;318472;-85
2022/12/12 02:20:53;;;;;;;30.63;18.90;;;;;;;;;;4418653;32;318847;-86
2022/12/12 02:23:52;;;;;;;31.10;20.83;;;;;;;;;;4420454;32;318409;-85
2022/12/12 02:27:02;;;;;;;40.10;21.33;;;;;;;;;;4429388;32;318655;-85
2022/12/12 02:29:53;;;;;;;39.90;21.60;;;;;;;;;;4387466;32;418620;-86
2022/12/12 02:32:27;;;;;;;35.13;20.90;;;;;;;;;;4422295;32;348966;-86
2022/12/12 02:35:03;;;;;;;34.30;21.93;;;;;;;;;;4397228;32;419324;-86
2022/12/12 02:37:37;;;;;;;37.63;20.60;;;;;;;;;;4411246;32;318539;-86
2022/12/12 02:40:15;;;;;;;32.40;20.90;;;;;;;;;;4425792;32;319503;-85
2022/12/12 02:42:46;;;;;;;29.73;20.90;;;;;;;;;;4413308;32;319284;-85
2022/12/12 02:45:20;;;;;;;30.30;18.47;;;;;;;;;;4438300;32;317198;-85
2022/12/12 02:47:54;;;;;;;30.43;17.97;;;;;;;;;;4428828;32;318129;-85
2022/12/12 02:50:23;;;;;;;30.17;18.07;;;;;;;;;;4421829;32;318710;-85
2022/12/12 02:52:50;;;;;;;27.97;16.83;;;;;;;;;;4397100;32;420340;-85
2022/12/12 02:55:18;;;;;;;31.70;18.37;;;;;;;;;;4429958;32;318573;-85
2022/12/12 02:57:45;;;;;;;29.67;18.80;;;;;;;;;;4411741;32;319260;-85
2022/12/12 03:00:17;;;;;;;36.90;20.83;;;;;;;;;;4427734;32;318565;-85
2022/12/12 03:09:05;;;;;;;25.30;16.90;;;;;;;;;;4391233;32;389584;-85
2022/12/12 03:11:45;;;;;;;14.07;10.20;;;;;;;;;;4420646;32;318576;-87
2022/12/12 03:14:19;;;;;;;23.93;13.10;;;;;;;;;;4433929;32;318129;-86
2022/12/12 03:16:57;;;;;;;32.10;16.90;;;;;;;;;;4430558;32;342786;-85
2022/12/12 03:19:29;;;;;;;31.17;15.40;;;;;;;;;;4420204;32;318849;-86
2022/12/12 03:22:03;;;;;;;28.43;14.50;;;;;;;;;;4440136;32;317427;-86
2022/12/12 03:24:34;;;;;;;27.43;14.90;;;;;;;;;;4423681;32;318654;-85
2022/12/12 03:27:06;;;;;;;22.20;13.73;;;;;;;;;;4432756;32;317174;-85
2022/12/12 03:29:36;;;;;;;19.83;13.77;;;;;;;;;;4419450;32;317253;-85
2022/12/12 03:32:09;;;;;;;20.43;12.07;;;;;;;;;;4432118;32;317354;-86
2022/12/12 03:34:43;;;;;;;19.90;13.20;;;;;;;;;;4422895;32;318545;-87
2022/12/12 03:37:13;;;;;;;24.50;15.53;;;;;;;;;;4421574;32;318610;-86
2022/12/12 03:39:45;;;;;;;26.93;15.67;;;;;;;;;;4415352;32;318627;-86
2022/12/12 03:42:18;;;;;;;24.57;16.47;;;;;;;;;;4421764;32;318578;-86
2022/12/12 03:44:50;;;;;;;24.03;14.93;;;;;;;;;;4425246;32;322723;-85
2022/12/12 03:47:23;;;;;;;21.57;13.80;;;;;;;;;;4437027;32;318534;-87
2022/12/12 03:49:55;;;;;;;24.67;13.40;;;;;;;;;;4433576;32;417063;-86
2022/12/12 03:52:27;;;;;;;19.47;12.63;;;;;;;;;;4445582;32;340113;-85
2022/12/12 03:55:00;;;;;;;18.03;11.83;;;;;;;;;;4433995;32;417566;-85
2022/12/12 03:57:31;;;;;;;20.80;11.67;;;;;;;;;;4441372;32;317849;-85
2022/12/12 04:00:04;;;;;;;14.10;10.00;;;;;;;;;;4445632;32;330796;-86
2022/12/12 04:02:39;;;;;;;17.13;9.87;;;;;;;;;;4437238;32;318843;-85
2022/12/12 04:05:14;;;;;;;13.90;8.37;;;;;;;;;;4447741;32;316526;-86
2022/12/12 04:07:44;;;;;;;12.53;9.57;;;;;;;;;;4435971;32;317434;-85
2022/12/12 04:13:12;;;;;;;14.37;9.60;;;;;;;;;;4396127;32;389525;-85
2022/12/12 04:15:51;;;;;;;14.20;9.27;;;;;;;;;;4433035;32;317486;-85
2022/12/12 04:18:26;;;;;;;15.73;10.07;;;;;;;;;;4436927;32;317361;-86
2022/12/12 04:23:56;;;;;;;26.73;14.90;;;;;;;;;;4425889;32;318534;-85
2022/12/12 04:26:40;;;;;;;29.00;17.07;;;;;;;;;;4443068;32;317349;-85
2022/12/12 04:29:15;;;;;;;37.03;20.80;;;;;;;;;;4424200;32;418950;-86
2022/12/12 04:31:56;;;;;;;30.07;15.33;;;;;;;;;;4422581;32;318499;-85
2022/12/12 04:34:33;;;;;;;24.73;15.43;;;;;;;;;;4427173;32;318717;-86
2022/12/12 04:37:03;;;;;;;22.70;14.37;;;;;;;;;;4414845;32;419197;-85
2022/12/12 04:39:32;;;;;;;32.63;17.53;;;;;;;;;;4424215;32;318570;-86
2022/12/12 04:42:01;;;;;;;21.37;13.87;;;;;;;;;;4434002;32;318625;-85
2022/12/12 04:44:32;;;;;;;26.43;14.87;;;;;;;;;;4415119;32;347399;-85
2022/12/12 04:47:03;;;;;;;28.20;16.43;;;;;;;;;;4433922;32;318503;-86
2022/12/12 04:49:33;;;;;;;26.50;16.67;;;;;;;;;;4411467;32;318673;-85
2022/12/12 04:52:05;;;;;;;27.30;16.70;;;;;;;;;;4433307;32;318544;-85
2022/12/12 04:54:41;;;;;;;26.70;15.77;;;;;;;;;;4414244;32;318902;-85
2022/12/12 04:57:13;;;;;;;23.40;14.50;;;;;;;;;;4431000;32;318726;-86
2022/12/12 04:59:40;;;;;;;30.00;15.47;;;;;;;;;;4424908;32;317342;-85
2022/12/12 05:02:15;;;;;;;31.73;16.27;;;;;;;;;;4443419;32;318280;-85
2022/12/12 05:04:49;;;;;;;24.90;16.07;;;;;;;;;;4425378;32;318584;-85
2022/12/12 05:07:22;;;;;;;29.83;15.90;;;;;;;;;;4435867;32;318526;-85
2022/12/12 05:09:50;;;;;;;20.50;14.43;;;;;;;;;;4422643;32;418054;-85
2022/12/12 05:12:19;;;;;;;20.10;13.97;;;;;;;;;;4436102;32;318417;-86
2022/12/12 05:14:48;;;;;;;22.20;13.33;;;;;;;;;;4420405;32;318548;-86
2022/12/12 05:17:21;;;;;;;19.60;14.13;;;;;;;;;;4423326;32;319021;-85
2022/12/12 05:19:48;;;;;;;20.43;14.07;;;;;;;;;;4418261;32;351445;-86
2022/12/12 05:22:15;;;;;;;23.67;13.63;;;;;;;;;;4437553;32;346844;-86
2022/12/12 05:24:46;;;;;;;26.40;16.70;;;;;;;;;;4439147;32;319322;-85
2022/12/12 05:27:13;;;;;;;25.23;16.87;;;;;;;;;;4452906;32;317192;-85
2022/12/12 05:29:40;;;;;;;26.67;16.90;;;;;;;;;;4443003;32;318150;-84
2022/12/12 05:32:07;;;;;;;30.17;15.60;;;;;;;;;;4444736;32;317378;-86
2022/12/12 05:34:34;;;;;;;22.03;15.13;;;;;;;;;;4440136;32;317173;-86
2022/12/12 05:37:01;;;;;;;23.30;14.40;;;;;;;;;;4438253;32;318545;-85
2022/12/12 05:39:27;;;;;;;25.57;17.47;;;;;;;;;;4425226;32;319193;-85
2022/12/12 05:41:56;;;;;;;23.20;14.33;;;;;;;;;;4437784;32;318448;-85
2022/12/12 05:44:23;;;;;;;24.23;15.20;;;;;;;;;;4436532;32;317354;-86
2022/12/12 05:46:50;;;;;;;23.53;15.00;;;;;;;;;;4423699;32;418398;-85
2022/12/12 05:49:17;;;;;;;32.37;19.47;;;;;;;;;;4436983;32;318334;-86
2022/12/12 05:51:44;;;;;;;42.23;23.73;;;;;;;;;;4417974;32;318415;-85
2022/12/12 05:54:14;;;;;;;43.10;24.03;;;;;;;;;;4438558;32;318375;-85
2022/12/12 05:56:41;;;;;;;29.63;20.87;;;;;;;;;;4426591;32;318647;-85
2022/12/12 05:59:09;;;;;;;33.87;20.77;;;;;;;;;;4436266;32;318504;-85
2022/12/12 06:01:38;;;;;;;37.03;22.50;;;;;;;;;;4426303;32;318425;-85
2022/12/12 06:04:04;;;;;;;33.37;21.40;;;;;;;;;;4446656;32;317172;-84
2022/12/12 06:06:31;;;;;;;41.53;21.70;;;;;;;;;;4424466;32;318701;-85
2022/12/12 06:08:59;;;;;;;29.77;17.93;;;;;;;;;;4427510;32;318460;-85
2022/12/12 06:11:26;;;;;;;36.53;21.60;;;;;;;;;;4426153;32;318582;-85
2022/12/12 06:13:54;;;;;;;34.33;22.03;;;;;;;;;;4438915;32;318552;-85
2022/12/12 06:16:24;;;;;;;44.50;24.67;;;;;;;;;;4429575;32;333250;-85
2022/12/12 06:18:52;;;;;;;46.63;24.47;;;;;;;;;;4429643;32;418243;-85
2022/12/12 06:21:19;;;;;;;48.13;29.43;;;;;;;;;;4441049;32;318911;-85
2022/12/12 06:23:47;;;;;;;47.60;27.90;;;;;;;;;;4424229;32;318695;-86
2022/12/12 06:26:16;;;;;;;48.47;25.07;;;;;;;;;;4433847;32;318517;-87
2022/12/12 06:28:43;;;;;;;42.60;24.57;;;;;;;;;;4409300;32;319546;-86
2022/12/12 06:31:11;;;;;;;43.10;24.10;;;;;;;;;;4429109;32;318565;-85
2022/12/12 06:33:40;;;;;;;39.13;22.40;;;;;;;;;;4423233;32;318885;-86
2022/12/12 06:36:10;;;;;;;37.87;21.10;;;;;;;;;;4429310;32;318512;-86
2022/12/12 06:38:38;;;;;;;44.93;26.60;;;;;;;;;;4422291;32;319178;-86
2022/12/12 06:41:08;;;;;;;70.33;46.73;;;;;;;;;;4436742;32;318269;-86
2022/12/12 06:43:35;;;;;;;52.30;34.60;;;;;;;;;;4426337;32;319792;-86
2022/12/12 06:46:05;;;;;;;44.20;30.40;;;;;;;;;;4440813;32;318682;-85
2022/12/12 06:48:34;;;;;;;65.13;48.60;;;;;;;;;;4432973;32;318510;-86
2022/12/12 06:51:08;;;;;;;36.43;24.17;;;;;;;;;;4442305;32;319356;-86
2022/12/12 06:53:36;;;;;;;42.13;25.30;;;;;;;;;;4427818;32;318599;-86
2022/12/12 06:56:07;;;;;;;37.57;24.50;;;;;;;;;;4437068;32;318485;-84
2022/12/12 06:58:34;;;;;;;28.00;18.43;;;;;;;;;;4420585;32;318638;-85
2022/12/12 07:01:01;;;;;;;29.60;21.17;;;;;;;;;;4438309;32;317352;-87
2022/12/12 07:03:29;;;;;;;39.13;23.83;;;;;;;;;;4405537;32;318725;-87
2022/12/12 07:05:56;;;;;;;36.27;23.03;;;;;;;;;;4432506;32;318588;-85
2022/12/12 07:08:24;;;;;;;32.83;21.47;;;;;;;;;;4432169;32;318778;-85
2022/12/12 07:10:51;;;;;;;33.83;20.70;;;;;;;;;;4423319;32;418492;-87
2022/12/12 07:13:19;;;;;;;37.83;22.67;;;;;;;;;;4437500;32;318395;-85
2022/12/12 07:15:48;;;;;;;40.20;25.03;;;;;;;;;;4420744;32;318605;-86
2022/12/12 07:18:17;;;;;;;40.60;26.10;;;;;;;;;;4438557;32;317360;-86
2022/12/12 07:20:46;;;;;;;42.67;25.00;;;;;;;;;;4428002;32;319696;-86
2022/12/12 07:37:32;;;;;;;56.13;37.57;;;;;;;;;;4426616;32;20368;-82
2022/12/12 07:40:00;;;;;;;46.10;30.20;;;;;;;;;;4397819;32;317715;-79
2022/12/12 07:42:28;;;;;;;46.67;28.77;;;;;;;;;;4386472;32;319223;-81
2022/12/12 07:44:55;;;;;;;37.40;25.20;;;;;;;;;;4396506;32;358809;-90
2022/12/12 07:47:23;;;;;;;40.80;24.27;;;;;;;;;;4398456;32;318816;-91
2022/12/12 07:49:51;;;;;;;69.50;34.37;;;;;;;;;;4384938;32;418089;-79
2022/12/12 07:52:18;;;;;;;42.53;28.00;;;;;;;;;;4397077;32;318965;-81
2022/12/12 07:54:47;;;;;;;43.83;28.13;;;;;;;;;;4386030;32;318981;-90
2022/12/12 07:57:15;;;;;;;45.07;30.07;;;;;;;;;;4397765;32;318906;-79
2022/12/12 07:59:42;;;;;;;43.70;28.43;;;;;;;;;;4386780;32;318846;-81
2022/12/12 08:02:10;;;;;;;44.23;30.40;;;;;;;;;;4396716;32;318686;-81
2022/12/12 08:04:38;;;;;;;63.87;37.23;;;;;;;;;;4386542;32;318960;-92
2022/12/12 08:07:05;;;;;;;59.93;38.50;;;;;;;;;;4398151;32;319605;-90
2022/12/12 08:09:33;;;;;;;65.00;41.37;;;;;;;;;;4384559;32;319113;-84
2022/12/12 08:12:02;;;;;;;102.27;48.60;;;;;;;;;;4396629;32;318823;-84
2022/12/12 08:14:31;;;;;;;58.83;39.63;;;;;;;;;;4385187;32;319603;-83
2022/12/12 08:16:58;;;;;;;62.87;40.07;;;;;;;;;;4396114;32;317816;-85
2022/12/12 08:19:26;;;;;;;64.20;41.40;;;;;;;;;;4385841;32;317721;-84
2022/12/12 08:21:54;;;;;;;80.63;48.40;;;;;;;;;;4397195;32;317578;-84
2022/12/12 08:24:22;;;;;;;65.20;44.87;;;;;;;;;;4396001;32;317733;-84
2022/12/12 08:26:50;;;;;;;72.23;46.00;;;;;;;;;;4385689;32;318599;-83
2022/12/12 08:29:19;;;;;;;88.77;54.53;;;;;;;;;;4396111;32;318848;-82
2022/12/12 08:31:47;;;;;;;79.33;50.53;;;;;;;;;;4385858;32;318877;-84
2022/12/12 08:34:14;;;;;;;95.67;67.67;;;;;;;;;;4396610;32;318688;-85
2022/12/12 08:36:42;;;;;;;86.57;58.77;;;;;;;;;;4382246;32;319227;-87
2022/12/12 08:39:12;;;;;;;108.43;63.30;;;;;;;;;;4386282;32;318902;-83
2022/12/12 08:41:41;;;;;;;93.63;56.87;;;;;;;;;;4375523;32;319776;-83
2022/12/12 08:44:10;;;;;;;93.70;58.20;;;;;;;;;;4386125;32;346688;-83
2022/12/12 08:46:40;;;;;;;86.67;57.63;;;;;;;;;;4375203;32;318827;-84
2022/12/12 08:49:08;;;;;;;94.93;55.97;;;;;;;;;;4386745;32;318879;-87
2022/12/12 08:51:37;;;;;;;107.67;68.57;;;;;;;;;;4373455;32;319212;-87
2022/12/12 08:54:05;;;;;;;93.60;61.47;;;;;;;;;;4385485;32;320066;-87
2022/12/12 08:56:33;;;;;;;99.53;58.17;;;;;;;;;;4373306;32;318903;-81
2022/12/12 08:59:01;;;;;;;96.03;59.60;;;;;;;;;;4384777;32;318524;-85
2022/12/12 09:01:28;;;;;;;90.80;61.37;;;;;;;;;;4374642;32;345708;-83
2022/12/12 09:03:58;;;;;;;111.90;66.77;;;;;;;;;;4386150;32;318978;-83
2022/12/12 09:06:26;;;;;;;128.87;72.97;;;;;;;;;;4373451;32;381581;-87
2022/12/12 09:08:55;;;;;;;93.17;61.07;;;;;;;;;;4386382;32;319701;-87
2022/12/12 09:11:23;;;;;;;242.37;108.63;;;;;;;;;;4385282;32;319033;-85
2022/12/12 09:13:51;;;;;;;97.77;61.83;;;;;;;;;;4372556;32;423062;-82
2022/12/12 09:16:20;;;;;;;106.67;72.63;;;;;;;;;;4386176;32;318628;-81
2022/12/12 09:18:48;;;;;;;102.90;65.23;;;;;;;;;;4376190;32;319909;-81
2022/12/12 09:21:17;;;;;;;98.23;62.30;;;;;;;;;;4385717;32;319977;-82
2022/12/12 09:23:45;;;;;;;97.63;64.00;;;;;;;;;;4372393;32;318712;-81
2022/12/12 09:26:13;;;;;;;90.93;58.20;;;;;;;;;;4383643;32;340472;-87
2022/12/12 09:28:41;;;;;;;85.10;55.97;;;;;;;;;;4374348;32;318989;-82
2022/12/12 09:31:12;;;;;;;95.93;60.50;;;;;;;;;;4386020;32;319096;-88
2022/12/12 09:33:41;;;;;;;79.17;53.70;;;;;;;;;;4374450;32;319113;-83
2022/12/12 09:36:12;;;;;;;81.00;54.87;;;;;;;;;;4385154;32;319173;-86
2022/12/12 09:38:41;;;;;;;94.70;53.60;;;;;;;;;;4374264;32;318680;-86
2022/12/12 09:41:14;;;;;;;68.87;47.17;;;;;;;;;;4385457;32;318785;-86
2022/12/12 09:43:50;;;;;;;66.63;47.10;;;;;;;;;;4374807;32;318887;-82
2022/12/12 09:46:27;;;;;;;52.20;35.93;;;;;;;;;;4385416;32;318943;-80
2022/12/12 09:49:00;;;;;;;91.70;48.37;;;;;;;;;;4371631;32;418336;-82
2022/12/12 09:51:28;;;;;;;47.23;31.67;;;;;;;;;;4372335;32;318798;-80
2022/12/12 09:53:58;;;;;;;43.07;26.57;;;;;;;;;;4384614;32;318935;-86
2022/12/12 09:56:31;;;;;;;38.90;24.63;;;;;;;;;;4374821;32;318633;-86
2022/12/12 09:59:03;;;;;;;43.67;28.03;;;;;;;;;;4384693;32;317710;-83
2022/12/12 10:01:35;;;;;;;41.47;26.47;;;;;;;;;;4373428;32;318813;-82
2022/12/12 10:04:20;;;;;;;42.93;25.17;;;;;;;;;;4385821;32;318977;-84
2022/12/12 10:06:55;;;;;;;39.53;27.13;;;;;;;;;;4373005;32;318806;-81
2022/12/12 10:09:37;;;;;;;38.87;25.37;;;;;;;;;;4384527;32;318869;-87
2022/12/12 10:12:07;;;;;;;45.87;26.80;;;;;;;;;;4370794;32;419555;-87
2022/12/12 10:14:39;;;;;;;36.60;25.67;;;;;;;;;;4373102;32;318872;-86
2022/12/12 10:17:11;;;;;;;42.90;28.93;;;;;;;;;;4386412;32;318607;-80
2022/12/12 10:19:47;;;;;;;40.70;25.20;;;;;;;;;;4373421;32;319259;-87
2022/12/12 10:22:21;;;;;;;33.23;18.90;;;;;;;;;;4385939;32;318653;-88
2022/12/12 10:24:55;;;;;;;40.80;20.37;;;;;;;;;;4374933;32;318210;-89
2022/12/12 10:27:25;;;;;;;34.37;18.67;;;;;;;;;;4385160;32;318893;-83
2022/12/12 10:29:53;;;;;;;19.27;13.87;;;;;;;;;;4372110;32;418316;-81
2022/12/12 10:32:35;;;;;;;20.43;12.23;;;;;;;;;;4386312;32;318814;-80
2022/12/12 10:35:16;;;;;;;23.50;14.03;;;;;;;;;;4370480;32;417880;-82
2022/12/12 10:37:51;;;;;;;34.47;17.93;;;;;;;;;;4374706;32;318759;-81
2022/12/12 10:40:35;;;;;;;26.03;16.03;;;;;;;;;;4385212;32;319132;-79
2022/12/12 10:43:09;;;;;;;24.00;14.83;;;;;;;;;;4370266;32;419136;-89
2022/12/12 10:45:52;;;;;;;25.13;14.23;;;;;;;;;;4373426;32;318933;-82
2022/12/12 10:48:20;;;;;;;23.37;14.77;;;;;;;;;;4384491;32;318946;-81
2022/12/12 10:50:52;;;;;;;23.47;12.90;;;;;;;;;;4373134;32;318904;-87
2022/12/12 10:53:21;;;;;;;22.63;11.17;;;;;;;;;;4384496;32;318617;-82
2022/12/12 10:55:53;;;;;;;16.17;11.37;;;;;;;;;;4371441;32;348810;-82
2022/12/12 10:58:25;;;;;;;20.10;12.13;;;;;;;;;;4383181;32;318640;-89
2022/12/12 11:01:02;;;;;;;15.10;11.03;;;;;;;;;;4368709;32;417864;-88
2022/12/12 11:03:33;;;;;;;20.43;11.70;;;;;;;;;;4372910;32;318935;-87
2022/12/12 11:06:04;;;;;;;19.53;11.17;;;;;;;;;;4384947;32;319202;-88
2022/12/12 11:08:34;;;;;;;21.13;13.33;;;;;;;;;;4372369;32;318711;-81
2022/12/12 11:11:19;;;;;;;23.40;13.80;;;;;;;;;;4383564;32;318653;-82
2022/12/12 11:13:51;;;;;;;27.70;15.23;;;;;;;;;;4373222;32;319006;-87
2022/12/12 11:16:23;;;;;;;15.10;10.33;;;;;;;;;;4383174;32;318842;-83
2022/12/12 11:19:04;;;;;;;16.30;10.43;;;;;;;;;;4369344;32;418307;-83
2022/12/12 11:21:33;;;;;;;18.30;10.30;;;;;;;;;;4374487;32;318862;-82
2022/12/12 11:24:06;;;;;;;19.63;8.23;;;;;;;;;;4383723;32;318883;-83
2022/12/12 11:26:41;;;;;;;14.83;7.77;;;;;;;;;;4374649;32;317769;-86
2022/12/12 11:29:26;;;;;;;10.53;5.90;;;;;;;;;;4385071;32;317912;-89
2022/12/12 11:31:55;;;;;;;14.33;6.87;;;;;;;;;;4368301;32;417946;-88
2022/12/12 11:34:25;;;;;;;7.90;5.20;;;;;;;;;;4384429;32;318020;-82
2022/12/12 11:36:53;;;;;;;10.83;4.97;;;;;;;;;;4369065;32;419059;-83
2022/12/12 11:39:25;;;;;;;10.50;5.27;;;;;;;;;;4382190;32;317800;-83
2022/12/12 11:42:03;;;;;;;8.17;4.00;;;;;;;;;;4368851;32;417096;-83
2022/12/12 11:44:34;;;;;;;7.10;4.40;;;;;;;;;;4372363;32;316644;-80
2022/12/12 11:47:22;;;;;;;10.07;4.07;;;;;;;;;;4382148;32;316567;-82
2022/12/12 11:49:55;;;;;;;9.80;4.30;;;;;;;;;;4373707;32;317867;-84
2022/12/12 11:52:23;;;;;;;13.80;5.33;;;;;;;;;;4383906;32;316388;-86
2022/12/12 11:54:52;;;;;;;9.70;5.20;;;;;;;;;;4369220;32;416652;-84
2022/12/12 11:57:43;;;;;;;9.97;5.10;;;;;;;;;;4384089;32;317065;-85
2022/12/12 12:00:15;;;;;;;13.40;5.50;;;;;;;;;;4369224;32;418158;-81
2022/12/12 12:03:20;;;;;;;10.23;5.57;;;;;;;;;;4373063;32;318159;-80
2022/12/12 12:05:57;;;;;;;6.87;4.03;;;;;;;;;;4373194;32;317824;-81
2022/12/12 12:08:39;;;;;;;14.07;7.93;;;;;;;;;;4384393;32;316862;-88
2022/12/12 12:11:17;;;;;;;17.83;6.43;;;;;;;;;;4372090;32;418909;-92
2022/12/12 12:14:01;;;;;;;11.90;5.13;;;;;;;;;;4376883;32;317810;-95
2022/12/12 12:16:37;;;;;;;11.33;4.67;;;;;;;;;;4375466;32;318020;-83
2022/12/12 12:19:13;;;;;;;9.10;5.00;;;;;;;;;;4386487;32;317655;-82
2022/12/12 12:21:49;;;;;;;14.33;6.17;;;;;;;;;;4377239;32;316817;-82
2022/12/12 12:24:31;;;;;;;15.93;7.30;;;;;;;;;;4387014;32;317731;-83
2022/12/12 12:27:07;;;;;;;10.63;7.27;;;;;;;;;;4372637;32;418065;-83
2022/12/12 12:30:02;;;;;;;31.97;12.77;;;;;;;;;;4376262;32;317869;-91
2022/12/12 12:32:40;;;;;;;17.80;8.43;;;;;;;;;;4376482;32;318719;-91
2022/12/12 12:35:23;;;;;;;15.80;6.97;;;;;;;;;;4386809;32;317918;-82
2022/12/12 12:38:00;;;;;;;12.53;7.37;;;;;;;;;;4373761;32;421061;-93
2022/12/12 12:40:40;;;;;;;23.40;10.10;;;;;;;;;;4375795;32;318049;-91
2022/12/12 12:43:25;;;;;;;14.67;9.13;;;;;;;;;;4387606;32;318931;-84
2022/12/12 12:45:59;;;;;;;15.20;8.77;;;;;;;;;;4372983;32;418211;-91
2022/12/12 12:48:33;;;;;;;10.57;5.90;;;;;;;;;;4376151;32;317690;-80
2022/12/12 12:51:09;;;;;;;14.67;7.63;;;;;;;;;;4386419;32;317776;-87
2022/12/12 12:53:41;;;;;;;15.63;7.13;;;;;;;;;;4376992;32;317588;-91
2022/12/12 12:56:17;;;;;;;16.93;7.77;;;;;;;;;;4386527;32;317973;-80
2022/12/12 12:58:47;;;;;;;16.77;7.60;;;;;;;;;;4377847;32;317905;-81
2022/12/12 13:01:20;;;;;;;7.57;5.93;;;;;;;;;;4386740;32;317651;-85
2022/12/12 13:03:54;;;;;;;13.30;7.80;;;;;;;;;;4376706;32;316769;-80
2022/12/12 13:06:30;;;;;;;14.37;9.30;;;;;;;;;;4387645;32;317739;-87
2022/12/12 13:09:01;;;;;;;31.13;9.27;;;;;;;;;;4373084;32;416972;-81
2022/12/12 13:11:34;;;;;;;17.27;13.57;;;;;;;;;;4376003;32;317628;-83
2022/12/12 13:14:13;;;;;;;25.47;13.97;;;;;;;;;;4387778;32;318825;-80
2022/12/12 13:16:44;;;;;;;17.60;13.03;;;;;;;;;;4377372;32;318885;-89
2022/12/12 13:19:15;;;;;;;13.93;9.90;;;;;;;;;;4386343;32;318831;-81
2022/12/12 13:21:51;;;;;;;15.13;7.80;;;;;;;;;;4376427;32;317819;-88
2022/12/12 13:24:24;;;;;;;16.37;10.10;;;;;;;;;;4386907;32;317964;-84
2022/12/12 13:27:00;;;;;;;9.93;6.10;;;;;;;;;;4373163;32;418287;-90
2022/12/12 13:29:35;;;;;;;18.00;7.73;;;;;;;;;;4374389;32;316825;-89
2022/12/12 13:32:36;;;;;;;15.17;11.33;;;;;;;;;;4387304;32;317763;-82
2022/12/12 13:35:22;;;;;;;14.07;7.83;;;;;;;;;;4374852;32;419152;-94
2022/12/12 13:37:52;;;;;;;10.50;7.33;;;;;;;;;;4374993;32;324887;-78
2022/12/12 13:40:27;;;;;;;16.90;10.37;;;;;;;;;;4387248;32;318119;-84
2022/12/12 13:42:58;;;;;;;21.23;10.33;;;;;;;;;;4374039;32;421906;-82
2022/12/12 13:45:43;;;;;;;14.03;6.87;;;;;;;;;;4379934;32;318944;-86
2022/12/12 13:48:38;;;;;;;11.87;6.77;;;;;;;;;;4385472;32;347039;-95
2022/12/12 13:51:40;;;;;;;12.87;6.60;;;;;;;;;;4374132;32;418098;-80
2022/12/12 13:54:53;;;;;;;13.63;7.83;;;;;;;;;;4373379;32;418278;-80
2022/12/12 13:57:33;;;;;;;11.33;4.73;;;;;;;;;;4369961;32;417839;-90
2022/12/12 14:00:20;;;;;;;18.13;12.77;;;;;;;;;;4372787;32;417268;-81
2022/12/12 14:03:01;;;;;;;28.10;19.50;;;;;;;;;;4375345;32;327608;-82
2022/12/12 14:05:34;;;;;;;21.33;14.13;;;;;;;;;;4373797;32;319007;-93
2022/12/12 14:08:06;;;;;;;12.70;8.50;;;;;;;;;;4385286;32;318872;-94
2022/12/12 14:10:36;;;;;;;18.77;11.43;;;;;;;;;;4375583;32;317837;-82
2022/12/12 14:13:28;;;;;;;14.70;8.07;;;;;;;;;;4387593;32;318633;-94
2022/12/12 14:16:05;;;;;;;18.80;8.27;;;;;;;;;;4374967;32;419307;-82
2022/12/12 14:18:38;;;;;;;18.97;8.47;;;;;;;;;;4375645;32;317712;-85
2022/12/12 14:21:10;;;;;;;23.57;11.03;;;;;;;;;;4386961;32;318014;-81
2022/12/12 14:23:39;;;;;;;28.10;14.50;;;;;;;;;;4378967;32;318677;-80
2022/12/12 14:26:48;;;;;;;26.63;17.63;;;;;;;;;;4393262;32;318977;-91
2022/12/12 14:29:27;;;;;;;46.03;26.03;;;;;;;;;;4334472;32;418989;-92
2022/12/12 14:32:12;;;;;;;78.13;40.30;;;;;;;;;;4371457;32;419087;-79
2022/12/12 14:34:47;;;;;;;38.80;18.03;;;;;;;;;;4375935;32;318964;-80
2022/12/12 14:37:42;;;;;;;32.80;17.03;;;;;;;;;;4387910;32;338409;-86
2022/12/12 14:40:17;;;;;;;37.23;20.03;;;;;;;;;;4374420;32;422446;-81
2022/12/12 14:42:52;;;;;;;33.87;22.43;;;;;;;;;;4377200;32;318805;-86
2022/12/12 14:45:41;;;;;;;50.70;29.50;;;;;;;;;;4388396;32;318307;-83
2022/12/12 14:48:22;;;;;;;56.60;29.90;;;;;;;;;;4372634;32;418877;-94
2022/12/12 14:50:57;;;;;;;55.73;27.33;;;;;;;;;;4367971;32;332172;-82
2022/12/12 14:53:30;;;;;;;51.93;27.27;;;;;;;;;;4386886;32;318980;-95
2022/12/12 14:56:01;;;;;;;55.10;27.00;;;;;;;;;;4371795;32;418871;-79
2022/12/12 14:58:32;;;;;;;83.53;37.77;;;;;;;;;;4376134;32;318816;-80
2022/12/12 15:01:02;;;;;;;86.00;45.27;;;;;;;;;;4386384;32;318963;-94
2022/12/12 15:03:33;;;;;;;83.07;45.23;;;;;;;;;;4374600;32;318866;-87